createdAt,value
2022-08-22T00:00:54.145Z,101193.50
2022-08-22T00:02:46.232Z,101170.50
2022-08-22T00:02:54.798Z,101195.47
2022-08-22T00:02:56.172Z,101198.41
2022-08-22T00:03:06.939Z,101208.03
2022-08-22T00:03:07.364Z,101204.28
2022-08-22T00:03:33.208Z,101194.44
2022-08-22T00:06:24.347Z,101205.16
2022-08-22T00:09:05.058Z,101198.22
2022-08-22T00:11:47.435Z,101202.81
2022-08-22T00:14:37.659Z,101203.13
2022-08-22T00:17:34.899Z,101195.47
2022-08-22T00:20:20.416Z,101201.72
2022-08-22T00:23:14.257Z,101194.22
2022-08-22T00:25:56.776Z,101198.94
2022-08-22T00:28:31.602Z,101195.63
2022-08-22T00:31:09.651Z,101201.19
2022-08-22T00:33:47.349Z,101196.97
2022-08-22T00:36:29.540Z,101205.91
2022-08-22T00:39:38.155Z,101200.88
2022-08-22T00:42:31.815Z,101201.16
2022-08-22T00:45:33.949Z,101205.09
2022-08-22T00:48:17.892Z,101203.41
2022-08-22T00:51:31.428Z,101198.41
2022-08-22T00:54:17.508Z,101201.19
2022-08-22T00:57:09.434Z,101203.25
2022-08-22T01:00:01.181Z,101206.03
2022-08-22T01:02:40.772Z,101197.28
2022-08-22T01:05:28.684Z,101192.44
2022-08-22T01:08:15.383Z,101198.66
2022-08-22T01:11:03.775Z,101194.53
2022-08-22T01:13:48.544Z,101199.66
2022-08-22T01:16:37.993Z,101193.38
2022-08-22T01:19:48.839Z,101206.88
2022-08-22T01:22:44.669Z,101206.03
2022-08-22T01:25:53.419Z,101218.44
2022-08-22T01:28:46.650Z,101216.75
2022-08-22T01:32:11.564Z,101224.94
2022-08-22T01:35:05.251Z,101230.09
2022-08-22T01:38:21.880Z,101227.16
2022-08-22T01:41:32.259Z,101226.88
2022-08-22T01:44:25.450Z,101229.66
2022-08-22T01:47:11.083Z,101231.59
2022-08-22T01:49:45.819Z,101235.47
2022-08-22T01:52:20.503Z,101238.09
2022-08-22T01:54:55.322Z,101241.19
2022-08-22T01:57:24.687Z,101229.88
2022-08-22T01:59:56.041Z,101232.84
2022-08-22T02:02:49.460Z,101226.97
2022-08-22T02:05:27.297Z,101229.91
2022-08-22T02:08:03.509Z,101221.25
2022-08-22T02:10:49.494Z,101227.66
2022-08-22T02:13:32.967Z,101223.34
2022-08-22T02:16:15.580Z,101220.13
2022-08-22T02:19:13.853Z,101219.31
2022-08-22T02:21:48.734Z,101227.38
2022-08-22T02:24:30.609Z,101228.31
2022-08-22T02:27:12.425Z,101231.91
2022-08-22T02:29:48.806Z,101228.44
2022-08-22T02:32:26.238Z,101227.88
2022-08-22T02:35:03.687Z,101226.06
2022-08-22T02:37:38.958Z,101227.06
2022-08-22T02:40:27.542Z,101227.06
2022-08-22T02:43:04.156Z,101230.66
2022-08-22T02:45:39.368Z,101225.38
2022-08-22T02:48:19.486Z,101218.41
2022-08-22T02:50:57.376Z,101223.66
2022-08-22T02:53:38.828Z,101220.09
2022-08-22T02:56:16.259Z,101224.56
2022-08-22T02:58:51.355Z,101220.94
2022-08-22T03:01:38.718Z,101225.38
2022-08-22T03:04:26.977Z,101218.41
2022-08-22T03:07:09.927Z,101229.72
2022-08-22T03:09:49.949Z,101223.44
2022-08-22T03:12:32.657Z,101224.44
2022-08-22T03:15:09.847Z,101222.63
2022-08-22T03:17:49.305Z,101218.28
2022-08-22T03:20:43.413Z,101212.44
2022-08-22T03:23:21.328Z,101225.47
2022-08-22T03:26:02.244Z,101220.47
2022-08-22T03:28:59.164Z,101217.28
2022-08-22T03:31:30.223Z,101215.72
2022-08-22T03:34:23.192Z,101211.56
2022-08-22T03:37:04.558Z,101209.88
2022-08-22T03:40:04.309Z,101212.78
2022-08-22T03:43:08.115Z,101215.41
2022-08-22T03:46:28.063Z,101208.50
2022-08-22T03:49:22.612Z,101216.16
2022-08-22T03:52:12.680Z,101215.41
2022-08-22T03:55:17.863Z,101220.69
2022-08-22T03:58:04.251Z,101221.69
2022-08-22T04:01:01.459Z,101224.31
2022-08-22T04:04:02.625Z,101220.81
2022-08-22T04:07:14.267Z,101226.84
2022-08-22T04:10:31.583Z,101233.88
2022-08-22T04:13:40.609Z,101227.66
2022-08-22T04:16:31.508Z,101242.53
2022-08-22T04:19:29.716Z,101232.94
2022-08-22T04:22:25.289Z,101244.19
2022-08-22T04:25:04.688Z,101246.69
2022-08-22T04:27:42.577Z,101249.19
2022-08-22T04:30:21.273Z,101240.31
2022-08-22T04:32:54.620Z,101255.03
2022-08-22T04:35:33.015Z,101248.94
2022-08-22T04:38:09.446Z,101250.59
2022-08-22T04:40:45.097Z,101255.75
2022-08-22T04:43:31.401Z,101254.91
2022-08-22T04:46:08.246Z,101259.91
2022-08-22T04:48:42.696Z,101252.69
2022-08-22T04:51:20.103Z,101257.75
2022-08-22T04:54:08.144Z,101257.59
2022-08-22T04:56:44.919Z,101266.09
2022-08-22T04:59:17.252Z,101259.72
2022-08-22T05:01:48.095Z,101258.59
2022-08-22T05:04:23.452Z,101260.97
2022-08-22T05:06:54.773Z,101262.41
2022-08-22T05:09:31.996Z,101271.00
2022-08-22T05:12:05.911Z,101275.06
2022-08-22T05:14:42.622Z,101269.47
2022-08-22T05:17:17.149Z,101267.56
2022-08-22T05:19:50.724Z,101271.59
2022-08-22T05:22:22.870Z,101273.97
2022-08-22T05:24:57.434Z,101271.06
2022-08-22T05:27:29.371Z,101264.53
2022-08-22T05:30:04.008Z,101283.47
2022-08-22T05:32:40.594Z,101282.34
2022-08-22T05:35:10.994Z,101283.75
2022-08-22T05:37:44.296Z,101278.16
2022-08-22T05:40:21.104Z,101289.31
2022-08-22T05:42:50.664Z,101294.88
2022-08-22T05:45:20.297Z,101296.13
2022-08-22T05:47:53.354Z,101296.56
2022-08-22T05:50:29.211Z,101293.38
2022-08-22T05:53:06.333Z,101300.75
2022-08-22T05:55:49.119Z,101293.94
2022-08-22T05:58:44.394Z,101306.63
2022-08-22T06:01:24.578Z,101308.56
2022-08-22T06:04:06.078Z,101312.19
2022-08-22T06:06:40.631Z,101301.31
2022-08-22T06:09:24.602Z,101309.78
2022-08-22T06:12:18.206Z,101306.97
2022-08-22T06:15:11.681Z,101313.34
2022-08-22T06:17:47.988Z,101323.16
2022-08-22T06:20:21.698Z,101308.66
2022-08-22T06:22:58.306Z,101316.81
2022-08-22T06:25:34.888Z,101316.88
2022-08-22T06:28:13.031Z,101321.88
2022-08-22T06:30:48.247Z,101319.97
2022-08-22T06:36:36.324Z,101320.88
2022-08-22T06:39:13.956Z,101322.34
2022-08-22T06:41:54.264Z,101314.44
2022-08-22T06:44:30.668Z,101322.31
2022-08-22T06:47:02.278Z,101330.88
2022-08-22T06:49:34.971Z,101333.41
2022-08-22T06:52:10.224Z,101335.47
2022-08-22T06:54:50.250Z,101328.50
2022-08-22T06:57:29.977Z,101332.72
2022-08-22T07:00:04.796Z,101339.72
2022-08-22T07:02:43.245Z,101343.22
2022-08-22T07:05:20.886Z,101333.28
2022-08-22T07:07:51.607Z,101346.41
2022-08-22T07:10:23.739Z,101341.28
2022-08-22T07:12:55.415Z,101349.94
2022-08-22T07:15:50.640Z,101340.69
2022-08-22T07:21:13.506Z,101349.25
2022-08-22T07:23:48.955Z,101349.09
2022-08-22T07:26:31.460Z,101357.59
2022-08-22T07:29:10.701Z,101349.63
2022-08-22T07:31:51.849Z,101363.75
2022-08-22T07:34:39.604Z,101351.13
2022-08-22T07:37:21.107Z,101344.97
2022-08-22T07:39:56.898Z,101355.63
2022-08-22T07:42:35.779Z,101352.00
2022-08-22T07:45:11.045Z,101355.47
2022-08-22T07:47:58.013Z,101352.81
2022-08-22T07:50:40.558Z,101352.16
2022-08-22T07:53:20.847Z,101354.44
2022-08-22T07:55:50.953Z,101358.56
2022-08-22T07:58:23.850Z,101357.22
2022-08-22T08:00:58.832Z,101359.84
2022-08-22T08:03:34.086Z,101350.13
2022-08-22T08:06:05.029Z,101362.53
2022-08-22T08:08:37.990Z,101352.50
2022-08-22T08:11:11.465Z,101348.06
2022-08-22T08:13:46.501Z,101341.50
2022-08-22T08:16:23.111Z,101353.97
2022-08-22T08:19:14.181Z,101351.59
2022-08-22T08:21:55.292Z,101353.91
2022-08-22T08:24:31.485Z,101360.50
2022-08-22T08:27:27.826Z,101351.22
2022-08-22T08:30:11.141Z,101349.34
2022-08-22T08:32:48.247Z,101358.03
2022-08-22T08:35:25.492Z,101356.44
2022-08-22T08:38:00.569Z,101348.53
2022-08-22T08:41:03.048Z,101353.94
2022-08-22T08:43:45.160Z,101345.91
2022-08-22T08:46:55.387Z,101349.78
2022-08-22T08:49:45.348Z,101343.31
2022-08-22T08:52:44.720Z,101340.53
2022-08-22T08:55:29.474Z,101351.06
2022-08-22T08:58:35.476Z,101338.25
2022-08-22T09:01:28.913Z,101347.78
2022-08-22T09:04:39.354Z,101350.59
2022-08-22T09:07:53.831Z,101347.13
2022-08-22T09:10:42.432Z,101349.19
2022-08-22T09:13:47.527Z,101355.09
2022-08-22T09:16:59.779Z,101356.31
2022-08-22T09:19:59.644Z,101353.69
2022-08-22T09:23:18.538Z,101356.78
2022-08-22T09:25:58.554Z,101343.25
2022-08-22T09:28:45.184Z,101352.19
2022-08-22T09:31:47.869Z,101349.34
2022-08-22T09:34:41.139Z,101357.50
2022-08-22T09:37:31.564Z,101364.97
2022-08-22T09:43:09.639Z,101368.97
2022-08-22T09:45:55.289Z,101364.03
2022-08-22T09:49:23.546Z,101357.41
2022-08-22T09:52:15.213Z,101353.28
2022-08-22T09:55:11.745Z,101351.19
2022-08-22T09:58:12.624Z,101352.03
2022-08-22T10:01:42.375Z,101361.13
2022-08-22T10:08:25.513Z,101350.16
2022-08-22T10:11:13.947Z,101349.56
2022-08-22T10:14:11.196Z,101359.44
2022-08-22T10:17:16.881Z,101353.94
2022-08-22T10:20:12.792Z,101356.97
2022-08-22T10:22:50.363Z,101360.25
2022-08-22T10:25:42.212Z,101363.88
2022-08-22T10:28:29.737Z,101361.88
2022-08-22T10:31:59.185Z,101359.56
2022-08-22T10:34:41.341Z,101357.94
2022-08-22T10:37:25.220Z,101354.44
2022-08-22T10:40:11.642Z,101355.47
2022-08-22T10:42:56.581Z,101361.41
2022-08-22T10:45:41.742Z,101347.41
2022-08-22T10:48:40.260Z,101354.72
2022-08-22T10:51:28.804Z,101352.25
2022-08-22T10:54:37.366Z,101355.03
2022-08-22T10:57:52.701Z,101350.69
2022-08-22T11:00:49.687Z,101353.28
2022-08-22T11:03:35.093Z,101353.50
2022-08-22T11:06:13.321Z,101354.00
2022-08-22T11:15:35.186Z,101338.88
2022-08-22T11:18:24.493Z,101344.81
2022-08-22T11:21:02.257Z,101352.31
2022-08-22T11:23:47.707Z,101355.22
2022-08-22T11:26:47.101Z,101350.03
2022-08-22T11:29:41.317Z,101351.66
2022-08-22T11:32:22.841Z,101339.94
2022-08-22T11:35:09.719Z,101353.53
2022-08-22T11:41:13.841Z,101348.75
2022-08-22T11:44:06.527Z,101348.38
2022-08-22T11:46:39.008Z,101354.97
2022-08-22T11:49:34.013Z,101348.13
2022-08-22T11:52:35.077Z,101347.06
2022-08-22T11:55:32.972Z,101343.75
2022-08-22T11:58:28.738Z,101339.03
2022-08-22T12:01:17.454Z,101346.69
2022-08-22T12:04:10.157Z,101334.50
2022-08-22T12:06:56.289Z,101336.97
2022-08-22T12:09:43.006Z,101340.66
2022-08-22T12:12:29.096Z,101336.09
2022-08-22T12:15:08.821Z,101324.38
2022-08-22T12:18:21.217Z,101332.84
2022-08-22T12:21:12.716Z,101328.88
2022-08-22T12:24:20.981Z,101324.38
2022-08-22T12:27:07.869Z,101313.44
2022-08-22T12:29:46.507Z,101322.16
2022-08-22T12:32:44.003Z,101332.53
2022-08-22T12:35:36.958Z,101322.06
2022-08-22T12:38:27.930Z,101323.31
2022-08-22T12:41:36.731Z,101322.91
2022-08-22T12:44:28.611Z,101320.84
2022-08-22T12:47:32.119Z,101313.19
2022-08-22T12:50:24.198Z,101315.06
2022-08-22T12:53:52.297Z,101310.50
2022-08-22T12:56:34.172Z,101297.91
2022-08-22T12:59:22.634Z,101299.34
2022-08-22T13:01:54.700Z,101296.25
2022-08-22T13:04:33.151Z,101299.72
2022-08-22T13:07:09.984Z,101295.34
2022-08-22T13:09:43.308Z,101298.38
2022-08-22T13:12:23.468Z,101295.47
2022-08-22T13:14:56.434Z,101285.19
2022-08-22T13:17:27.049Z,101280.81
2022-08-22T13:20:09.904Z,101283.59
2022-08-22T13:22:45.652Z,101292.47
2022-08-22T13:25:26.631Z,101285.84
2022-08-22T13:27:59.359Z,101283.38
2022-08-22T13:30:33.078Z,101288.56
2022-08-22T13:33:09.845Z,101284.44
2022-08-22T13:35:44.808Z,101286.91
2022-08-22T13:38:25.760Z,101292.94
2022-08-22T13:41:01.860Z,101286.97
2022-08-22T13:43:38.695Z,101291.72
2022-08-22T13:46:15.928Z,101285.31
2022-08-22T13:48:51.130Z,101285.69
2022-08-22T13:51:33.607Z,101289.63
2022-08-22T13:54:46.915Z,101283.88
2022-08-22T13:57:23.808Z,101283.88
2022-08-22T14:00:05.832Z,101288.78
2022-08-22T14:03:00.513Z,101286.53
2022-08-22T14:05:34.727Z,101277.84
2022-08-22T14:08:14.716Z,101283.22
2022-08-22T14:10:50.557Z,101276.81
2022-08-22T14:13:44.737Z,101287.56
2022-08-22T14:16:20.905Z,101285.28
2022-08-22T14:18:53.748Z,101285.06
2022-08-22T14:21:40.344Z,101279.09
2022-08-22T14:24:26.872Z,101272.06
2022-08-22T14:26:59.858Z,101270.31
2022-08-22T14:29:50.319Z,101268.69
2022-08-22T14:32:36.988Z,101268.00
2022-08-22T14:35:23.274Z,101270.63
2022-08-22T14:38:29.750Z,101267.31
2022-08-22T14:41:03.811Z,101270.63
2022-08-22T14:43:49.627Z,101268.13
2022-08-22T14:46:27.694Z,101259.66
2022-08-22T14:49:09.919Z,101264.00
2022-08-22T14:51:51.299Z,101256.16
2022-08-22T14:54:29.162Z,101264.19
2022-08-22T14:57:01.257Z,101262.94
2022-08-22T14:59:45.953Z,101266.88
2022-08-22T15:02:28.017Z,101265.00
2022-08-22T15:05:01.839Z,101263.34
2022-08-22T15:07:37.490Z,101266.41
2022-08-22T15:10:11.898Z,101262.06
2022-08-22T15:12:47.848Z,101256.97
2022-08-22T15:15:32.813Z,101263.13
2022-08-22T15:18:35.345Z,101266.59
2022-08-22T15:21:10.225Z,101266.81
2022-08-22T15:23:47.037Z,101270.09
2022-08-22T15:26:25.549Z,101270.47
2022-08-22T15:29:04.691Z,101267.31
2022-08-22T15:31:34.842Z,101267.22
2022-08-22T15:34:11.755Z,101271.84
2022-08-22T15:37:09.073Z,101275.00
2022-08-22T15:40:02.998Z,101274.66
2022-08-22T15:42:41.617Z,101273.16
2022-08-22T15:45:21.544Z,101266.00
2022-08-22T15:47:54.443Z,101269.00
2022-08-22T15:50:34.449Z,101266.22
2022-08-22T15:53:13.420Z,101276.16
2022-08-22T15:56:22.598Z,101276.41
2022-08-22T15:59:10.446Z,101272.44
2022-08-22T16:01:46.218Z,101268.97
2022-08-22T16:04:31.873Z,101272.06
2022-08-22T16:07:05.541Z,101274.38
2022-08-22T16:09:42.724Z,101273.94
2022-08-22T16:12:26.123Z,101272.44
2022-08-22T16:14:55.615Z,101276.34
2022-08-22T16:17:44.623Z,101270.81
2022-08-22T16:20:55.461Z,101272.66
2022-08-22T16:24:10.022Z,101276.00
2022-08-22T16:26:43.355Z,101278.13
2022-08-22T16:29:37.676Z,101280.13
2022-08-22T16:32:12.985Z,101275.91
2022-08-22T16:34:44.074Z,101275.56
2022-08-22T16:37:46.260Z,101286.03
2022-08-22T16:40:21.019Z,101286.75
2022-08-22T16:43:11.004Z,101280.94
2022-08-22T16:45:43.283Z,101275.34
2022-08-22T16:48:34.592Z,101282.78
2022-08-22T16:51:13.728Z,101286.16
2022-08-22T16:54:21.933Z,101283.03
2022-08-22T16:57:14.435Z,101281.97
2022-08-22T16:59:59.904Z,101277.06
2022-08-22T17:02:58.474Z,101283.16
2022-08-22T17:05:39.704Z,101286.13
2022-08-22T17:08:20.988Z,101285.25
2022-08-22T17:11:05.390Z,101299.75
2022-08-22T17:13:56.591Z,101294.31
2022-08-22T17:16:37.037Z,101288.84
2022-08-22T17:19:17.667Z,101293.91
2022-08-22T17:21:55.853Z,101301.03
2022-08-22T17:24:34.381Z,101296.59
2022-08-22T17:27:07.991Z,101292.78
2022-08-22T17:29:48.326Z,101298.66
2022-08-22T17:32:30.594Z,101298.34
2022-08-22T17:35:16.354Z,101292.22
2022-08-22T17:37:57.330Z,101296.09
2022-08-22T17:40:35.632Z,101294.91
2022-08-22T17:43:27.229Z,101304.56
2022-08-22T17:46:14.467Z,101303.09
2022-08-22T17:48:52.671Z,101302.94
2022-08-22T17:51:29.100Z,101312.81
2022-08-22T17:54:03.068Z,101313.97
2022-08-22T17:56:42.028Z,101316.66
2022-08-22T17:59:20.998Z,101308.22
2022-08-22T18:01:54.663Z,101305.56
2022-08-22T18:04:36.717Z,101309.56
2022-08-22T18:07:25.568Z,101312.56
2022-08-22T18:10:00.261Z,101333.22
2022-08-22T18:12:38.852Z,101335.88
2022-08-22T18:15:14.588Z,101330.19
2022-08-22T18:18:09.185Z,101340.34
2022-08-22T18:21:06.333Z,101347.34
2022-08-22T18:23:43.724Z,101352.34
2022-08-22T18:26:37.704Z,101361.78
2022-08-22T18:29:32.802Z,101359.47
2022-08-22T18:32:22.173Z,101353.97
2022-08-22T18:35:14.779Z,101353.00
2022-08-22T18:38:00.818Z,101354.66
2022-08-22T18:40:49.768Z,101355.50
2022-08-22T18:43:44.970Z,101353.81
2022-08-22T18:46:45.478Z,101354.84
2022-08-22T18:54:01.360Z,101345.81
2022-08-22T19:00:23.797Z,101346.00
2022-08-22T19:03:30.550Z,101346.00
2022-08-22T19:06:55.173Z,101340.34
2022-08-22T19:13:57.570Z,101332.00
2022-08-22T19:16:48.058Z,101344.81
2022-08-22T19:19:23.406Z,101344.00
2022-08-22T19:22:28.725Z,101347.66
2022-08-22T19:25:29.799Z,101344.31
2022-08-22T19:28:27.298Z,101350.78
2022-08-22T19:31:28.814Z,101361.59
2022-08-22T19:34:36.909Z,101363.28
2022-08-22T19:37:34.854Z,101357.97
2022-08-22T19:41:01.014Z,101368.75
2022-08-22T19:44:14.589Z,101360.13
2022-08-22T19:47:09.825Z,101370.94
2022-08-22T19:50:18.824Z,101373.91
2022-08-22T19:57:10.037Z,101373.75
2022-08-22T20:00:00.500Z,101371.25
2022-08-22T20:02:53.698Z,101369.72
2022-08-22T20:05:39.343Z,101369.91
2022-08-22T20:08:40.373Z,101368.41
2022-08-22T20:11:29.231Z,101366.06
2022-08-22T20:14:30.553Z,101366.06
2022-08-22T20:17:10.629Z,101366.91
2022-08-22T20:22:44.305Z,101374.06
2022-08-22T20:25:42.861Z,101374.22
2022-08-22T20:28:11.327Z,101375.03
2022-08-22T20:30:43.316Z,101369.88
2022-08-22T20:33:17.609Z,101371.72
2022-08-22T20:35:53.016Z,101372.03
2022-08-22T20:38:25.511Z,101367.03
2022-08-22T20:41:00.775Z,101370.88
2022-08-22T20:43:35.300Z,101378.84
2022-08-22T20:46:22.329Z,101372.88
2022-08-22T20:48:55.711Z,101377.34
2022-08-22T20:51:27.188Z,101375.69
2022-08-22T20:53:57.253Z,101374.84
2022-08-22T20:56:37.678Z,101371.69
2022-08-22T20:59:30.615Z,101369.19
2022-08-22T21:02:07.658Z,101366.53
2022-08-22T21:04:42.992Z,101366.19
2022-08-22T21:07:12.241Z,101374.47
2022-08-22T21:09:58.664Z,101367.53
2022-08-22T21:12:27.768Z,101373.66
2022-08-22T21:14:55.675Z,101368.66
2022-08-22T21:17:27.254Z,101372.31
2022-08-22T21:19:57.894Z,101375.16
2022-08-22T21:22:29.939Z,101373.63
2022-08-22T21:25:02.223Z,101372.94
2022-08-22T21:27:32.776Z,101377.41
2022-08-22T21:30:02.530Z,101374.91
2022-08-22T21:32:34.489Z,101372.44
2022-08-22T21:35:04.300Z,101376.06
2022-08-22T21:37:39.872Z,101369.94
2022-08-22T21:40:16.947Z,101376.22
2022-08-22T21:42:58.424Z,101367.59
2022-08-22T21:45:30.216Z,101373.88
2022-08-22T21:47:58.673Z,101386.34
2022-08-22T21:50:31.781Z,101376.69
2022-08-22T21:53:12.042Z,101379.69
2022-08-22T21:55:44.473Z,101379.00
2022-08-22T21:58:35.621Z,101377.69
2022-08-22T22:01:29.710Z,101370.03
2022-08-22T22:03:59.453Z,101365.03
2022-08-22T22:06:28.614Z,101360.84
2022-08-22T22:08:57.861Z,101358.34
2022-08-22T22:11:26.823Z,101366.47
2022-08-22T22:13:54.947Z,101371.78
2022-08-22T22:16:26.766Z,101360.50
2022-08-22T22:18:54.729Z,101365.66
2022-08-22T22:21:22.787Z,101376.44
2022-08-22T22:23:50.724Z,101374.78
2022-08-22T22:26:21.011Z,101368.78
2022-08-22T22:28:50.195Z,101363.78
2022-08-22T22:31:19.261Z,101365.09
2022-08-22T22:33:47.406Z,101372.25
2022-08-22T22:36:19.189Z,101369.06
2022-08-22T22:38:48.121Z,101371.03
2022-08-22T22:41:15.999Z,101372.72
2022-08-22T22:43:45.254Z,101360.56
2022-08-22T22:46:12.969Z,101365.22
2022-08-22T22:48:40.835Z,101372.53
2022-08-22T22:51:10.531Z,101369.34
2022-08-22T22:53:42.691Z,101370.47
2022-08-22T22:56:14.151Z,101367.16
2022-08-22T22:58:45.666Z,101365.63
2022-08-22T23:01:18.780Z,101366.50
2022-08-22T23:03:47.602Z,101362.31
2022-08-22T23:06:18.235Z,101361.66
2022-08-22T23:08:46.651Z,101359.97
2022-08-22T23:11:19.136Z,101366.25
2022-08-22T23:13:49.529Z,101360.78
2022-08-22T23:16:21.592Z,101365.28
2022-08-22T23:18:50.113Z,101356.34
2022-08-22T23:21:21.214Z,101356.34
2022-08-22T23:23:50.377Z,101350.16
2022-08-22T23:26:18.408Z,101352.81
2022-08-22T23:28:46.511Z,101341.38
2022-08-22T23:31:18.317Z,101344.03
2022-08-22T23:33:47.371Z,101349.34
2022-08-22T23:36:17.999Z,101352.81
2022-08-22T23:38:46.824Z,101352.47
2022-08-22T23:41:17.660Z,101346.50
2022-08-22T23:43:48.185Z,101344.16
2022-08-22T23:46:19.132Z,101340.13
2022-08-22T23:48:47.691Z,101333.13
2022-08-22T23:51:18.062Z,101342.41
2022-08-22T23:53:50.748Z,101339.38
2022-08-22T23:56:22.299Z,101348.50
2022-08-22T23:58:51.218Z,101333.03
